sensor_id;sensor_type;location;lat;lon;timestamp;P1;durP1;ratioP1;P2;durP2;ratioP2
63394;SDS011;49531;-34.520;150.798;2023-01-08T00:01:10;2.03;;;0.90;;
63394;SDS011;49531;-34.520;150.798;2023-01-08T00:03:38;2.13;;;0.93;;
63394;SDS011;49531;-34.520;150.798;2023-01-08T00:06:07;2.67;;;1.05;;
63394;SDS011;49531;-34.520;150.798;2023-01-08T00:08:36;3.40;;;1.00;;
63394;SDS011;49531;-34.520;150.798;2023-01-08T00:11:04;3.70;;;1.10;;
63394;SDS011;49531;-34.520;150.798;2023-01-08T00:13:31;2.88;;;1.00;;
63394;SDS011;49531;-34.520;150.798;2023-01-08T00:16:02;4.35;;;1.17;;
63394;SDS011;49531;-34.520;150.798;2023-01-08T00:18:30;4.63;;;1.20;;
63394;SDS011;49531;-34.520;150.798;2023-01-08T00:20:58;4.57;;;1.10;;
63394;SDS011;49531;-34.520;150.798;2023-01-08T00:23:25;7.05;;;1.40;;
63394;SDS011;49531;-34.520;150.798;2023-01-08T00:25:53;5.95;;;1.30;;
63394;SDS011;49531;-34.520;150.798;2023-01-08T00:28:20;19.33;;;3.10;;
63394;SDS011;49531;-34.520;150.798;2023-01-08T00:30:47;7.00;;;1.33;;
63394;SDS011;49531;-34.520;150.798;2023-01-08T00:33:15;8.20;;;1.60;;
63394;SDS011;49531;-34.520;150.798;2023-01-08T00:35:42;10.00;;;1.42;;
63394;SDS011;49531;-34.520;150.798;2023-01-08T00:38:09;5.60;;;1.40;;
63394;SDS011;49531;-34.520;150.798;2023-01-08T00:40:37;8.98;;;1.60;;
63394;SDS011;49531;-34.520;150.798;2023-01-08T00:43:05;6.95;;;1.55;;
63394;SDS011;49531;-34.520;150.798;2023-01-08T00:45:33;6.72;;;1.33;;
63394;SDS011;49531;-34.520;150.798;2023-01-08T00:48:00;6.35;;;1.30;;
63394;SDS011;49531;-34.520;150.798;2023-01-08T00:50:28;4.80;;;1.25;;
63394;SDS011;49531;-34.520;150.798;2023-01-08T00:52:55;4.60;;;1.13;;
63394;SDS011;49531;-34.520;150.798;2023-01-08T00:55:22;4.25;;;1.33;;
63394;SDS011;49531;-34.520;150.798;2023-01-08T00:57:49;4.82;;;1.30;;
63394;SDS011;49531;-34.520;150.798;2023-01-08T01:00:17;4.60;;;1.20;;
63394;SDS011;49531;-34.520;150.798;2023-01-08T01:02:44;6.28;;;1.40;;
63394;SDS011;49531;-34.520;150.798;2023-01-08T01:05:12;4.90;;;1.40;;
63394;SDS011;49531;-34.520;150.798;2023-01-08T01:07:41;5.07;;;1.40;;
63394;SDS011;49531;-34.520;150.798;2023-01-08T01:10:10;6.32;;;1.48;;
63394;SDS011;49531;-34.520;150.798;2023-01-08T01:12:38;2.83;;;1.20;;
63394;SDS011;49531;-34.520;150.798;2023-01-08T01:15:06;6.15;;;1.48;;
63394;SDS011;49531;-34.520;150.798;2023-01-08T01:17:36;3.17;;;1.30;;
63394;SDS011;49531;-34.520;150.798;2023-01-08T01:20:05;11.02;;;1.60;;
63394;SDS011;49531;-34.520;150.798;2023-01-08T01:22:33;7.60;;;1.42;;
63394;SDS011;49531;-34.520;150.798;2023-01-08T01:25:01;4.30;;;1.35;;
63394;SDS011;49531;-34.520;150.798;2023-01-08T01:27:28;3.55;;;1.20;;
63394;SDS011;49531;-34.520;150.798;2023-01-08T01:29:55;2.90;;;1.30;;
63394;SDS011;49531;-34.520;150.798;2023-01-08T01:32:23;5.32;;;1.27;;
63394;SDS011;49531;-34.520;150.798;2023-01-08T01:34:50;6.40;;;1.50;;
63394;SDS011;49531;-34.520;150.798;2023-01-08T01:37:18;4.43;;;1.27;;
63394;SDS011;49531;-34.520;150.798;2023-01-08T01:39:45;6.47;;;1.40;;
63394;SDS011;49531;-34.520;150.798;2023-01-08T01:42:12;6.00;;;1.38;;
63394;SDS011;49531;-34.520;150.798;2023-01-08T01:45:02;5.30;;;1.15;;
63394;SDS011;49531;-34.520;150.798;2023-01-08T01:47:38;6.35;;;1.30;;
63394;SDS011;49531;-34.520;150.798;2023-01-08T01:50:07;6.82;;;1.40;;
63394;SDS011;49531;-34.520;150.798;2023-01-08T01:52:52;7.60;;;1.40;;
63394;SDS011;49531;-34.520;150.798;2023-01-08T01:55:26;7.60;;;1.45;;
63394;SDS011;49531;-34.520;150.798;2023-01-08T01:58:03;6.18;;;1.48;;
63394;SDS011;49531;-34.520;150.798;2023-01-08T02:00:35;6.13;;;1.58;;
63394;SDS011;49531;-34.520;150.798;2023-01-08T02:03:03;6.85;;;1.40;;
63394;SDS011;49531;-34.520;150.798;2023-01-08T02:05:33;4.78;;;1.52;;
63394;SDS011;49531;-34.520;150.798;2023-01-08T02:08:17;4.25;;;1.25;;
63394;SDS011;49531;-34.520;150.798;2023-01-08T02:11:06;4.70;;;1.42;;
63394;SDS011;49531;-34.520;150.798;2023-01-08T02:13:38;5.67;;;1.37;;
63394;SDS011;49531;-34.520;150.798;2023-01-08T02:16:13;6.47;;;1.40;;
63394;SDS011;49531;-34.520;150.798;2023-01-08T02:18:47;3.95;;;1.23;;
63394;SDS011;49531;-34.520;150.798;2023-01-08T02:21:28;3.45;;;1.30;;
63394;SDS011;49531;-34.520;150.798;2023-01-08T02:24:18;4.65;;;1.30;;
63394;SDS011;49531;-34.520;150.798;2023-01-08T02:26:53;4.70;;;1.48;;
63394;SDS011;49531;-34.520;150.798;2023-01-08T02:29:23;8.00;;;1.42;;
63394;SDS011;49531;-34.520;150.798;2023-01-08T02:31:53;6.13;;;1.60;;
63394;SDS011;49531;-34.520;150.798;2023-01-08T02:34:20;3.97;;;1.17;;
63394;SDS011;49531;-34.520;150.798;2023-01-08T02:36:49;4.60;;;1.38;;
63394;SDS011;49531;-34.520;150.798;2023-01-08T02:39:23;3.40;;;1.15;;
63394;SDS011;49531;-34.520;150.798;2023-01-08T02:42:20;4.32;;;1.30;;
63394;SDS011;49531;-34.520;150.798;2023-01-08T02:45:13;3.72;;;1.00;;
63394;SDS011;49531;-34.520;150.798;2023-01-08T02:47:54;4.43;;;1.27;;
63394;SDS011;49531;-34.520;150.798;2023-01-08T02:50:40;5.32;;;1.33;;
63394;SDS011;49531;-34.520;150.798;2023-01-08T02:53:19;6.90;;;1.60;;
63394;SDS011;49531;-34.520;150.798;2023-01-08T02:55:51;6.30;;;1.45;;
63394;SDS011;49531;-34.520;150.798;2023-01-08T02:58:22;4.50;;;1.30;;
63394;SDS011;49531;-34.520;150.798;2023-01-08T03:00:51;5.40;;;1.40;;
63394;SDS011;49531;-34.520;150.798;2023-01-08T03:03:21;5.40;;;1.27;;
63394;SDS011;49531;-34.520;150.798;2023-01-08T03:05:57;5.65;;;1.33;;
63394;SDS011;49531;-34.520;150.798;2023-01-08T03:08:28;5.07;;;1.20;;
63394;SDS011;49531;-34.520;150.798;2023-01-08T03:11:01;6.60;;;1.20;;
63394;SDS011;49531;-34.520;150.798;2023-01-08T03:16:08;5.43;;;1.42;;
63394;SDS011;49531;-34.520;150.798;2023-01-08T03:18:43;5.35;;;1.20;;
63394;SDS011;49531;-34.520;150.798;2023-01-08T03:21:14;3.90;;;1.30;;
63394;SDS011;49531;-34.520;150.798;2023-01-08T03:23:44;5.68;;;1.30;;
63394;SDS011;49531;-34.520;150.798;2023-01-08T03:26:14;5.30;;;1.30;;
63394;SDS011;49531;-34.520;150.798;2023-01-08T03:28:45;5.00;;;1.30;;
63394;SDS011;49531;-34.520;150.798;2023-01-08T03:31:16;3.67;;;1.30;;
63394;SDS011;49531;-34.520;150.798;2023-01-08T03:33:45;6.25;;;1.30;;
63394;SDS011;49531;-34.520;150.798;2023-01-08T03:36:15;5.50;;;1.30;;
63394;SDS011;49531;-34.520;150.798;2023-01-08T03:38:48;5.72;;;1.40;;
63394;SDS011;49531;-34.520;150.798;2023-01-08T03:41:19;4.75;;;1.23;;
63394;SDS011;49531;-34.520;150.798;2023-01-08T03:43:49;6.28;;;1.30;;
63394;SDS011;49531;-34.520;150.798;2023-01-08T03:46:19;4.50;;;1.35;;
63394;SDS011;49531;-34.520;150.798;2023-01-08T03:48:52;6.43;;;1.17;;
63394;SDS011;49531;-34.520;150.798;2023-01-08T03:51:20;8.45;;;1.50;;
63394;SDS011;49531;-34.520;150.798;2023-01-08T03:53:48;6.28;;;1.50;;
63394;SDS011;49531;-34.520;150.798;2023-01-08T03:56:19;5.85;;;1.60;;
63394;SDS011;49531;-34.520;150.798;2023-01-08T03:58:46;6.72;;;1.52;;
63394;SDS011;49531;-34.520;150.798;2023-01-08T04:01:13;3.30;;;1.20;;
63394;SDS011;49531;-34.520;150.798;2023-01-08T04:03:40;6.50;;;1.30;;
63394;SDS011;49531;-34.520;150.798;2023-01-08T04:06:08;4.82;;;1.20;;
63394;SDS011;49531;-34.520;150.798;2023-01-08T04:08:35;4.65;;;1.30;;
63394;SDS011;49531;-34.520;150.798;2023-01-08T04:11:02;3.10;;;1.15;;
63394;SDS011;49531;-34.520;150.798;2023-01-08T04:13:29;3.83;;;1.20;;
63394;SDS011;49531;-34.520;150.798;2023-01-08T04:15:56;3.95;;;1.42;;
63394;SDS011;49531;-34.520;150.798;2023-01-08T04:18:23;3.38;;;1.20;;
63394;SDS011;49531;-34.520;150.798;2023-01-08T04:20:50;4.90;;;1.20;;
63394;SDS011;49531;-34.520;150.798;2023-01-08T04:23:17;3.42;;;1.23;;
63394;SDS011;49531;-34.520;150.798;2023-01-08T04:25:45;4.72;;;1.50;;
63394;SDS011;49531;-34.520;150.798;2023-01-08T04:28:12;5.40;;;1.40;;
63394;SDS011;49531;-34.520;150.798;2023-01-08T04:30:39;3.17;;;1.20;;
63394;SDS011;49531;-34.520;150.798;2023-01-08T04:33:06;3.65;;;1.20;;
63394;SDS011;49531;-34.520;150.798;2023-01-08T04:35:33;4.63;;;1.35;;
63394;SDS011;49531;-34.520;150.798;2023-01-08T04:38:00;3.05;;;1.40;;
63394;SDS011;49531;-34.520;150.798;2023-01-08T04:40:27;6.25;;;1.27;;
63394;SDS011;49531;-34.520;150.798;2023-01-08T04:42:55;2.28;;;1.10;;
63394;SDS011;49531;-34.520;150.798;2023-01-08T04:45:22;3.45;;;1.30;;
63394;SDS011;49531;-34.520;150.798;2023-01-08T04:47:59;3.05;;;1.20;;
63394;SDS011;49531;-34.520;150.798;2023-01-08T04:50:26;4.15;;;1.10;;
63394;SDS011;49531;-34.520;150.798;2023-01-08T04:52:54;4.35;;;1.30;;
63394;SDS011;49531;-34.520;150.798;2023-01-08T04:55:21;2.75;;;1.25;;
63394;SDS011;49531;-34.520;150.798;2023-01-08T04:57:48;4.55;;;1.45;;
63394;SDS011;49531;-34.520;150.798;2023-01-08T05:03:37;4.30;;;1.35;;
63394;SDS011;49531;-34.520;150.798;2023-01-08T05:06:04;5.03;;;1.30;;
63394;SDS011;49531;-34.520;150.798;2023-01-08T05:08:32;5.10;;;1.33;;
63394;SDS011;49531;-34.520;150.798;2023-01-08T05:11:00;4.20;;;1.17;;
63394;SDS011;49531;-34.520;150.798;2023-01-08T05:13:28;4.78;;;1.33;;
63394;SDS011;49531;-34.520;150.798;2023-01-08T05:15:59;3.13;;;1.30;;
63394;SDS011;49531;-34.520;150.798;2023-01-08T05:18:27;2.10;;;1.10;;
63394;SDS011;49531;-34.520;150.798;2023-01-08T05:20:58;4.35;;;1.25;;
63394;SDS011;49531;-34.520;150.798;2023-01-08T05:23:27;5.23;;;1.00;;
63394;SDS011;49531;-34.520;150.798;2023-01-08T05:25:56;3.42;;;1.25;;
63394;SDS011;49531;-34.520;150.798;2023-01-08T05:28:26;3.60;;;1.10;;
63394;SDS011;49531;-34.520;150.798;2023-01-08T05:30:54;3.40;;;1.20;;
63394;SDS011;49531;-34.520;150.798;2023-01-08T05:33:22;2.90;;;1.20;;
63394;SDS011;49531;-34.520;150.798;2023-01-08T05:35:49;4.72;;;1.17;;
63394;SDS011;49531;-34.520;150.798;2023-01-08T05:38:17;2.53;;;1.20;;
63394;SDS011;49531;-34.520;150.798;2023-01-08T05:40:44;4.72;;;1.20;;
63394;SDS011;49531;-34.520;150.798;2023-01-08T05:43:11;4.30;;;1.30;;
63394;SDS011;49531;-34.520;150.798;2023-01-08T05:45:38;3.97;;;1.10;;
63394;SDS011;49531;-34.520;150.798;2023-01-08T05:48:06;4.00;;;1.42;;
63394;SDS011;49531;-34.520;150.798;2023-01-08T05:50:33;2.90;;;1.17;;
63394;SDS011;49531;-34.520;150.798;2023-01-08T05:53:04;4.45;;;1.35;;
63394;SDS011;49531;-34.520;150.798;2023-01-08T05:55:32;6.28;;;1.45;;
63394;SDS011;49531;-34.520;150.798;2023-01-08T05:58:00;4.30;;;1.27;;
63394;SDS011;49531;-34.520;150.798;2023-01-08T06:03:50;2.88;;;1.20;;
63394;SDS011;49531;-34.520;150.798;2023-01-08T06:06:21;2.92;;;1.40;;
63394;SDS011;49531;-34.520;150.798;2023-01-08T06:08:48;3.22;;;1.30;;
63394;SDS011;49531;-34.520;150.798;2023-01-08T06:11:15;4.28;;;1.20;;
63394;SDS011;49531;-34.520;150.798;2023-01-08T06:13:42;3.90;;;1.08;;
63394;SDS011;49531;-34.520;150.798;2023-01-08T06:16:10;3.03;;;1.08;;
63394;SDS011;49531;-34.520;150.798;2023-01-08T06:18:37;3.08;;;1.10;;
63394;SDS011;49531;-34.520;150.798;2023-01-08T06:21:04;4.72;;;1.20;;
63394;SDS011;49531;-34.520;150.798;2023-01-08T06:23:31;5.05;;;1.23;;
63394;SDS011;49531;-34.520;150.798;2023-01-08T06:25:59;3.75;;;1.20;;
63394;SDS011;49531;-34.520;150.798;2023-01-08T06:28:29;3.75;;;1.40;;
63394;SDS011;49531;-34.520;150.798;2023-01-08T06:30:57;3.40;;;1.02;;
63394;SDS011;49531;-34.520;150.798;2023-01-08T06:33:26;3.17;;;1.15;;
63394;SDS011;49531;-34.520;150.798;2023-01-08T06:35:53;2.95;;;1.17;;
63394;SDS011;49531;-34.520;150.798;2023-01-08T06:38:20;3.28;;;1.20;;
63394;SDS011;49531;-34.520;150.798;2023-01-08T06:40:48;3.97;;;1.10;;
63394;SDS011;49531;-34.520;150.798;2023-01-08T06:43:15;3.63;;;1.20;;
63394;SDS011;49531;-34.520;150.798;2023-01-08T06:45:43;5.07;;;1.40;;
63394;SDS011;49531;-34.520;150.798;2023-01-08T06:48:10;3.08;;;1.23;;
63394;SDS011;49531;-34.520;150.798;2023-01-08T06:50:37;4.57;;;1.40;;
63394;SDS011;49531;-34.520;150.798;2023-01-08T06:53:04;5.07;;;1.40;;
63394;SDS011;49531;-34.520;150.798;2023-01-08T06:55:31;3.97;;;1.15;;
63394;SDS011;49531;-34.520;150.798;2023-01-08T06:57:58;4.45;;;1.20;;
63394;SDS011;49531;-34.520;150.798;2023-01-08T07:00:25;5.35;;;1.27;;
63394;SDS011;49531;-34.520;150.798;2023-01-08T07:02:55;5.28;;;1.20;;
63394;SDS011;49531;-34.520;150.798;2023-01-08T07:05:22;2.97;;;1.25;;
63394;SDS011;49531;-34.520;150.798;2023-01-08T07:07:49;4.40;;;1.10;;
63394;SDS011;49531;-34.520;150.798;2023-01-08T07:10:17;4.53;;;1.40;;
63394;SDS011;49531;-34.520;150.798;2023-01-08T07:12:44;4.50;;;1.30;;
63394;SDS011;49531;-34.520;150.798;2023-01-08T07:15:11;2.75;;;1.10;;
63394;SDS011;49531;-34.520;150.798;2023-01-08T07:17:38;7.43;;;1.40;;
63394;SDS011;49531;-34.520;150.798;2023-01-08T07:20:05;2.15;;;1.00;;
63394;SDS011;49531;-34.520;150.798;2023-01-08T07:22:34;3.33;;;1.17;;
63394;SDS011;49531;-34.520;150.798;2023-01-08T07:25:01;2.95;;;0.90;;
63394;SDS011;49531;-34.520;150.798;2023-01-08T07:27:29;3.30;;;1.05;;
63394;SDS011;49531;-34.520;150.798;2023-01-08T07:29:57;2.90;;;1.20;;
63394;SDS011;49531;-34.520;150.798;2023-01-08T07:32:24;3.80;;;1.00;;
63394;SDS011;49531;-34.520;150.798;2023-01-08T07:34:51;2.63;;;1.10;;
63394;SDS011;49531;-34.520;150.798;2023-01-08T07:37:19;4.03;;;1.08;;
63394;SDS011;49531;-34.520;150.798;2023-01-08T07:39:46;3.17;;;1.08;;
63394;SDS011;49531;-34.520;150.798;2023-01-08T07:42:13;2.15;;;0.93;;
63394;SDS011;49531;-34.520;150.798;2023-01-08T07:44:40;4.10;;;1.25;;
63394;SDS011;49531;-34.520;150.798;2023-01-08T07:47:07;2.55;;;1.10;;
63394;SDS011;49531;-34.520;150.798;2023-01-08T07:49:34;3.03;;;1.20;;
63394;SDS011;49531;-34.520;150.798;2023-01-08T07:52:01;2.28;;;1.05;;
63394;SDS011;49531;-34.520;150.798;2023-01-08T07:54:29;3.72;;;1.08;;
63394;SDS011;49531;-34.520;150.798;2023-01-08T07:56:56;3.15;;;1.10;;
63394;SDS011;49531;-34.520;150.798;2023-01-08T07:59:23;2.60;;;1.17;;
63394;SDS011;49531;-34.520;150.798;2023-01-08T08:01:50;1.45;;;0.85;;
63394;SDS011;49531;-34.520;150.798;2023-01-08T08:04:17;3.15;;;1.00;;
63394;SDS011;49531;-34.520;150.798;2023-01-08T08:06:44;3.53;;;0.90;;
63394;SDS011;49531;-34.520;150.798;2023-01-08T08:09:11;2.83;;;1.10;;
63394;SDS011;49531;-34.520;150.798;2023-01-08T08:11:38;2.78;;;1.10;;
63394;SDS011;49531;-34.520;150.798;2023-01-08T08:14:06;2.88;;;1.00;;
63394;SDS011;49531;-34.520;150.798;2023-01-08T08:16:33;3.78;;;1.00;;
63394;SDS011;49531;-34.520;150.798;2023-01-08T08:19:00;2.20;;;1.10;;
63394;SDS011;49531;-34.520;150.798;2023-01-08T08:21:27;3.53;;;1.00;;
63394;SDS011;49531;-34.520;150.798;2023-01-08T08:23:55;1.73;;;0.90;;
63394;SDS011;49531;-34.520;150.798;2023-01-08T08:26:23;5.22;;;0.80;;
63394;SDS011;49531;-34.520;150.798;2023-01-08T08:28:50;2.75;;;0.98;;
63394;SDS011;49531;-34.520;150.798;2023-01-08T08:31:17;3.20;;;1.13;;
63394;SDS011;49531;-34.520;150.798;2023-01-08T08:33:44;3.58;;;0.95;;
63394;SDS011;49531;-34.520;150.798;2023-01-08T08:36:11;1.92;;;0.80;;
63394;SDS011;49531;-34.520;150.798;2023-01-08T08:38:38;1.40;;;0.90;;
63394;SDS011;49531;-34.520;150.798;2023-01-08T08:41:06;1.42;;;0.93;;
63394;SDS011;49531;-34.520;150.798;2023-01-08T08:43:33;1.45;;;0.85;;
63394;SDS011;49531;-34.520;150.798;2023-01-08T08:46:00;3.25;;;0.95;;
63394;SDS011;49531;-34.520;150.798;2023-01-08T08:48:27;3.38;;;0.95;;
63394;SDS011;49531;-34.520;150.798;2023-01-08T08:50:54;3.75;;;1.00;;
63394;SDS011;49531;-34.520;150.798;2023-01-08T08:53:21;2.17;;;1.02;;
63394;SDS011;49531;-34.520;150.798;2023-01-08T08:55:48;3.13;;;1.10;;
63394;SDS011;49531;-34.520;150.798;2023-01-08T08:58:15;2.55;;;1.00;;
63394;SDS011;49531;-34.520;150.798;2023-01-08T09:00:42;1.58;;;0.82;;
63394;SDS011;49531;-34.520;150.798;2023-01-08T09:03:11;3.38;;;0.98;;
63394;SDS011;49531;-34.520;150.798;2023-01-08T09:05:39;2.10;;;1.10;;
63394;SDS011;49531;-34.520;150.798;2023-01-08T09:08:08;2.17;;;0.95;;
63394;SDS011;49531;-34.520;150.798;2023-01-08T09:10:36;2.42;;;0.98;;
63394;SDS011;49531;-34.520;150.798;2023-01-08T09:13:07;3.28;;;0.90;;
63394;SDS011;49531;-34.520;150.798;2023-01-08T09:15:35;2.75;;;0.90;;
63394;SDS011;49531;-34.520;150.798;2023-01-08T09:18:03;2.70;;;0.98;;
63394;SDS011;49531;-34.520;150.798;2023-01-08T09:20:30;4.70;;;1.00;;
63394;SDS011;49531;-34.520;150.798;2023-01-08T09:22:58;1.58;;;0.90;;
63394;SDS011;49531;-34.520;150.798;2023-01-08T09:25:26;1.58;;;0.73;;
63394;SDS011;49531;-34.520;150.798;2023-01-08T09:28:00;2.22;;;0.90;;
63394;SDS011;49531;-34.520;150.798;2023-01-08T09:30:29;1.67;;;0.82;;
63394;SDS011;49531;-34.520;150.798;2023-01-08T09:32:58;3.00;;;0.95;;
63394;SDS011;49531;-34.520;150.798;2023-01-08T09:35:26;4.35;;;1.10;;
63394;SDS011;49531;-34.520;150.798;2023-01-08T09:37:54;0.98;;;0.70;;
63394;SDS011;49531;-34.520;150.798;2023-01-08T09:40:21;2.10;;;0.90;;
63394;SDS011;49531;-34.520;150.798;2023-01-08T09:42:54;4.47;;;0.90;;
63394;SDS011;49531;-34.520;150.798;2023-01-08T09:45:26;1.93;;;1.10;;
63394;SDS011;49531;-34.520;150.798;2023-01-08T09:47:57;2.10;;;0.88;;
63394;SDS011;49531;-34.520;150.798;2023-01-08T09:50:27;2.63;;;0.90;;
63394;SDS011;49531;-34.520;150.798;2023-01-08T09:52:56;1.65;;;0.80;;
63394;SDS011;49531;-34.520;150.798;2023-01-08T09:55:24;2.35;;;0.82;;
63394;SDS011;49531;-34.520;150.798;2023-01-08T09:57:54;2.25;;;0.80;;
63394;SDS011;49531;-34.520;150.798;2023-01-08T10:00:24;2.78;;;0.90;;
63394;SDS011;49531;-34.520;150.798;2023-01-08T10:02:54;3.22;;;1.00;;
63394;SDS011;49531;-34.520;150.798;2023-01-08T10:05:22;2.20;;;0.95;;
63394;SDS011;49531;-34.520;150.798;2023-01-08T10:07:51;3.88;;;0.90;;
63394;SDS011;49531;-34.520;150.798;2023-01-08T10:10:20;3.40;;;1.10;;
63394;SDS011;49531;-34.520;150.798;2023-01-08T10:12:52;2.95;;;0.80;;
63394;SDS011;49531;-34.520;150.798;2023-01-08T10:15:20;2.42;;;0.80;;
63394;SDS011;49531;-34.520;150.798;2023-01-08T10:20:30;2.00;;;0.95;;
63394;SDS011;49531;-34.520;150.798;2023-01-08T10:23:08;1.40;;;0.90;;
63394;SDS011;49531;-34.520;150.798;2023-01-08T10:25:48;2.03;;;0.90;;
63394;SDS011;49531;-34.520;150.798;2023-01-08T10:28:21;2.75;;;1.02;;
63394;SDS011;49531;-34.520;150.798;2023-01-08T10:30:51;1.50;;;0.90;;
63394;SDS011;49531;-34.520;150.798;2023-01-08T10:33:22;1.35;;;0.90;;
63394;SDS011;49531;-34.520;150.798;2023-01-08T10:35:52;3.33;;;1.00;;
63394;SDS011;49531;-34.520;150.798;2023-01-08T10:38:28;2.92;;;0.90;;
63394;SDS011;49531;-34.520;150.798;2023-01-08T10:40:59;1.70;;;0.90;;
63394;SDS011;49531;-34.520;150.798;2023-01-08T10:43:34;2.30;;;1.10;;
63394;SDS011;49531;-34.520;150.798;2023-01-08T10:46:17;3.45;;;0.90;;
63394;SDS011;49531;-34.520;150.798;2023-01-08T10:49:01;3.25;;;1.10;;
63394;SDS011;49531;-34.520;150.798;2023-01-08T10:51:32;2.53;;;1.10;;
63394;SDS011;49531;-34.520;150.798;2023-01-08T10:54:00;3.00;;;1.20;;
63394;SDS011;49531;-34.520;150.798;2023-01-08T10:56:41;2.47;;;1.00;;
63394;SDS011;49531;-34.520;150.798;2023-01-08T10:59:17;2.05;;;0.90;;
63394;SDS011;49531;-34.520;150.798;2023-01-08T11:01:45;2.58;;;0.90;;
63394;SDS011;49531;-34.520;150.798;2023-01-08T11:04:19;2.20;;;0.95;;
63394;SDS011;49531;-34.520;150.798;2023-01-08T11:09:28;2.53;;;0.95;;
63394;SDS011;49531;-34.520;150.798;2023-01-08T11:11:58;1.30;;;0.80;;
63394;SDS011;49531;-34.520;150.798;2023-01-08T11:14:30;2.33;;;1.17;;
63394;SDS011;49531;-34.520;150.798;2023-01-08T11:17:00;3.53;;;1.00;;
63394;SDS011;49531;-34.520;150.798;2023-01-08T11:19:34;3.08;;;0.93;;
63394;SDS011;49531;-34.520;150.798;2023-01-08T11:22:16;3.10;;;1.00;;
63394;SDS011;49531;-34.520;150.798;2023-01-08T11:24:45;2.25;;;0.98;;
63394;SDS011;49531;-34.520;150.798;2023-01-08T11:27:15;2.22;;;0.90;;
63394;SDS011;49531;-34.520;150.798;2023-01-08T11:30:00;1.90;;;1.00;;
63394;SDS011;49531;-34.520;150.798;2023-01-08T11:32:44;3.55;;;1.20;;
63394;SDS011;49531;-34.520;150.798;2023-01-08T11:35:16;2.65;;;1.00;;
63394;SDS011;49531;-34.520;150.798;2023-01-08T11:37:48;2.28;;;0.95;;
63394;SDS011;49531;-34.520;150.798;2023-01-08T11:40:22;4.00;;;1.08;;
63394;SDS011;49531;-34.520;150.798;2023-01-08T11:43:20;3.30;;;1.10;;
63394;SDS011;49531;-34.520;150.798;2023-01-08T11:49:11;4.00;;;1.05;;
63394;SDS011;49531;-34.520;150.798;2023-01-08T11:51:57;1.98;;;0.90;;
63394;SDS011;49531;-34.520;150.798;2023-01-08T11:54:54;1.90;;;0.90;;
63394;SDS011;49531;-34.520;150.798;2023-01-08T11:58:33;2.88;;;1.00;;
63394;SDS011;49531;-34.520;150.798;2023-01-08T12:00:51;2.10;;;1.02;;
63394;SDS011;49531;-34.520;150.798;2023-01-08T12:03:33;1.63;;;1.08;;
63394;SDS011;49531;-34.520;150.798;2023-01-08T12:08:54;1.80;;;0.80;;
63394;SDS011;49531;-34.520;150.798;2023-01-08T12:11:38;2.25;;;1.00;;
63394;SDS011;49531;-34.520;150.798;2023-01-08T12:14:28;3.25;;;1.10;;
63394;SDS011;49531;-34.520;150.798;2023-01-08T12:20:10;1.65;;;0.95;;
63394;SDS011;49531;-34.520;150.798;2023-01-08T12:22:59;2.55;;;0.90;;
63394;SDS011;49531;-34.520;150.798;2023-01-08T12:25:47;1.02;;;0.80;;
63394;SDS011;49531;-34.520;150.798;2023-01-08T12:28:33;2.95;;;0.98;;
63394;SDS011;49531;-34.520;150.798;2023-01-08T12:31:27;2.15;;;0.98;;
63394;SDS011;49531;-34.520;150.798;2023-01-08T12:34:12;2.35;;;0.93;;
63394;SDS011;49531;-34.520;150.798;2023-01-08T12:36:45;1.42;;;0.90;;
63394;SDS011;49531;-34.520;150.798;2023-01-08T12:39:23;2.43;;;1.00;;
63394;SDS011;49531;-34.520;150.798;2023-01-08T12:41:56;2.00;;;0.90;;
63394;SDS011;49531;-34.520;150.798;2023-01-08T12:44:32;1.55;;;0.90;;
63394;SDS011;49531;-34.520;150.798;2023-01-08T12:47:01;2.53;;;0.90;;
63394;SDS011;49531;-34.520;150.798;2023-01-08T12:49:34;1.23;;;0.90;;
63394;SDS011;49531;-34.520;150.798;2023-01-08T12:52:11;2.83;;;0.88;;
63394;SDS011;49531;-34.520;150.798;2023-01-08T12:54:55;1.02;;;0.80;;
63394;SDS011;49531;-34.520;150.798;2023-01-08T12:57:33;2.28;;;0.80;;
63394;SDS011;49531;-34.520;150.798;2023-01-08T13:00:11;2.22;;;0.90;;
63394;SDS011;49531;-34.520;150.798;2023-01-08T13:02:50;1.70;;;0.90;;
63394;SDS011;49531;-34.520;150.798;2023-01-08T13:05:29;2.40;;;0.90;;
63394;SDS011;49531;-34.520;150.798;2023-01-08T13:08:01;1.95;;;0.80;;
63394;SDS011;49531;-34.520;150.798;2023-01-08T13:10:38;2.42;;;1.00;;
63394;SDS011;49531;-34.520;150.798;2023-01-08T13:13:24;2.38;;;0.90;;
63394;SDS011;49531;-34.520;150.798;2023-01-08T13:18:31;2.22;;;0.80;;
63394;SDS011;49531;-34.520;150.798;2023-01-08T13:21:00;3.10;;;0.85;;
63394;SDS011;49531;-34.520;150.798;2023-01-08T13:23:31;1.13;;;0.80;;
63394;SDS011;49531;-34.520;150.798;2023-01-08T13:26:00;3.10;;;0.95;;
63394;SDS011;49531;-34.520;150.798;2023-01-08T13:31:26;1.77;;;0.80;;
63394;SDS011;49531;-34.520;150.798;2023-01-08T13:33:53;1.60;;;0.80;;
63394;SDS011;49531;-34.520;150.798;2023-01-08T13:36:23;2.53;;;0.80;;
63394;SDS011;49531;-34.520;150.798;2023-01-08T13:38:59;1.45;;;0.93;;
63394;SDS011;49531;-34.520;150.798;2023-01-08T13:41:34;1.40;;;0.90;;
63394;SDS011;49531;-34.520;150.798;2023-01-08T13:44:23;2.58;;;0.85;;
63394;SDS011;49531;-34.520;150.798;2023-01-08T13:46:57;2.55;;;1.00;;
63394;SDS011;49531;-34.520;150.798;2023-01-08T13:49:33;1.88;;;0.80;;
63394;SDS011;49531;-34.520;150.798;2023-01-08T13:54:52;2.38;;;0.93;;
63394;SDS011;49531;-34.520;150.798;2023-01-08T13:57:20;1.77;;;0.80;;
63394;SDS011;49531;-34.520;150.798;2023-01-08T13:59:51;1.08;;;0.82;;
63394;SDS011;49531;-34.520;150.798;2023-01-08T14:02:21;2.45;;;0.93;;
63394;SDS011;49531;-34.520;150.798;2023-01-08T14:04:51;1.70;;;0.88;;
63394;SDS011;49531;-34.520;150.798;2023-01-08T14:07:19;2.15;;;0.90;;
63394;SDS011;49531;-34.520;150.798;2023-01-08T14:09:48;2.25;;;0.80;;
63394;SDS011;49531;-34.520;150.798;2023-01-08T14:12:17;1.00;;;0.80;;
63394;SDS011;49531;-34.520;150.798;2023-01-08T14:14:47;1.77;;;0.80;;
63394;SDS011;49531;-34.520;150.798;2023-01-08T14:17:19;2.15;;;0.80;;
63394;SDS011;49531;-34.520;150.798;2023-01-08T14:19:50;1.92;;;0.90;;
63394;SDS011;49531;-34.520;150.798;2023-01-08T14:22:19;2.08;;;0.90;;
63394;SDS011;49531;-34.520;150.798;2023-01-08T14:24:55;2.10;;;0.93;;
63394;SDS011;49531;-34.520;150.798;2023-01-08T14:27:27;2.25;;;0.98;;
63394;SDS011;49531;-34.520;150.798;2023-01-08T14:29:56;2.30;;;0.80;;
63394;SDS011;49531;-34.520;150.798;2023-01-08T14:32:25;1.42;;;0.80;;
63394;SDS011;49531;-34.520;150.798;2023-01-08T14:34:54;2.03;;;0.82;;
63394;SDS011;49531;-34.520;150.798;2023-01-08T14:37:22;3.13;;;1.00;;
63394;SDS011;49531;-34.520;150.798;2023-01-08T14:39:49;1.13;;;0.90;;
63394;SDS011;49531;-34.520;150.798;2023-01-08T14:42:20;2.83;;;0.90;;
63394;SDS011;49531;-34.520;150.798;2023-01-08T14:45:04;1.83;;;0.80;;
63394;SDS011;49531;-34.520;150.798;2023-01-08T14:47:42;2.33;;;1.00;;
63394;SDS011;49531;-34.520;150.798;2023-01-08T14:50:18;2.20;;;1.00;;
63394;SDS011;49531;-34.520;150.798;2023-01-08T14:53:04;1.80;;;0.88;;
63394;SDS011;49531;-34.520;150.798;2023-01-08T14:55:34;2.40;;;0.98;;
63394;SDS011;49531;-34.520;150.798;2023-01-08T15:00:38;1.35;;;0.70;;
63394;SDS011;49531;-34.520;150.798;2023-01-08T15:03:06;1.45;;;0.82;;
63394;SDS011;49531;-34.520;150.798;2023-01-08T15:05:52;1.55;;;0.80;;